createdAt,value
2019-04-11T00:01:10.088Z,4.88
2019-04-11T00:03:39.646Z,4.78
2019-04-11T00:06:08.218Z,4.88
2019-04-11T00:08:37.125Z,4.94
2019-04-11T00:11:06.024Z,4.73
2019-04-11T00:13:36.321Z,4.79
2019-04-11T00:16:04.965Z,4.52
2019-04-11T00:18:34.520Z,4.53
2019-04-11T00:21:03.034Z,4.31
2019-04-11T00:23:32.368Z,4.43
2019-04-11T00:26:02.061Z,4.45
2019-04-11T00:28:30.607Z,4.37
2019-04-11T00:30:59.091Z,4.40
2019-04-11T00:33:27.574Z,4.30
2019-04-11T00:35:56.081Z,4.41
2019-04-11T00:38:25.659Z,4.42
2019-04-11T00:40:54.704Z,4.31
2019-04-11T00:43:31.767Z,4.05
2019-04-11T00:45:54.081Z,4.13
2019-04-11T00:48:23.782Z,4.17
2019-04-11T00:50:52.373Z,3.96
2019-04-11T00:53:20.812Z,4.08
2019-04-11T00:55:49.427Z,4.11
2019-04-11T00:58:17.880Z,4.02
2019-04-11T01:00:47.130Z,4.12
2019-04-11T01:03:15.867Z,4.18
2019-04-11T01:05:45.622Z,3.88
2019-04-11T01:08:15.700Z,3.75
2019-04-11T01:10:45.702Z,3.77
2019-04-11T01:13:15.443Z,3.88
2019-04-11T01:15:46.843Z,3.81
2019-04-11T01:18:16.001Z,3.77
2019-04-11T01:20:44.582Z,3.99
2019-04-11T01:23:13.075Z,3.97
2019-04-11T01:25:41.480Z,3.97
2019-04-11T01:28:10.247Z,3.74
2019-04-11T01:30:55.515Z,3.71
2019-04-11T01:33:24.158Z,3.77
2019-04-11T01:35:53.360Z,3.53
2019-04-11T01:38:23.722Z,3.62
2019-04-11T01:40:52.042Z,3.75
2019-04-11T01:43:20.569Z,3.45
2019-04-11T01:45:49.681Z,3.43
2019-04-11T01:48:23.689Z,3.42
2019-04-11T01:50:53.567Z,3.26
2019-04-11T01:53:22.647Z,3.31
2019-04-11T01:55:51.164Z,3.31
2019-04-11T01:58:19.646Z,3.22
2019-04-11T02:00:56.666Z,3.26
2019-04-11T02:03:33.146Z,3.21
2019-04-11T02:06:01.580Z,3.25
2019-04-11T02:08:30.033Z,3.24
2019-04-11T02:10:59.339Z,3.27
2019-04-11T02:13:28.024Z,3.36
2019-04-11T02:15:58.270Z,3.32
2019-04-11T02:18:27.653Z,3.28
2019-04-11T02:20:56.164Z,3.06
2019-04-11T02:23:43.417Z,3.32
2019-04-11T02:26:13.594Z,3.31
2019-04-11T02:28:42.075Z,3.31
2019-04-11T02:31:12.105Z,3.09
2019-04-11T02:33:41.380Z,3.30
2019-04-11T02:36:12.261Z,3.38
2019-04-11T02:38:41.309Z,3.44
2019-04-11T02:41:11.984Z,3.43
2019-04-11T02:43:42.704Z,3.37
2019-04-11T02:46:22.959Z,3.19
2019-04-11T02:48:42.803Z,3.24
2019-04-11T02:51:12.404Z,3.10
2019-04-11T02:53:42.034Z,3.13
2019-04-11T02:56:11.709Z,3.15
2019-04-11T02:58:40.419Z,3.14
2019-04-11T03:01:10.452Z,3.14
2019-04-11T03:03:42.232Z,3.18
2019-04-11T03:06:11.719Z,3.12
2019-04-11T03:08:41.055Z,3.10
2019-04-11T03:11:10.934Z,2.97
2019-04-11T03:13:39.782Z,2.92
2019-04-11T03:16:25.012Z,2.93
2019-04-11T03:18:55.070Z,2.89
2019-04-11T03:21:14.544Z,2.76
2019-04-11T03:23:40.157Z,2.68
2019-04-11T03:26:12.376Z,2.73
2019-04-11T03:28:46.312Z,2.84
2019-04-11T03:31:50.556Z,2.78
2019-04-11T03:37:06.802Z,2.71
2019-04-11T03:39:05.734Z,2.59
2019-04-11T03:41:29.702Z,2.40
2019-04-11T03:43:57.098Z,2.53
2019-04-11T03:46:33.703Z,2.42
2019-04-11T03:48:55.754Z,2.46
2019-04-11T03:51:18.777Z,2.36
2019-04-11T03:53:47.278Z,2.45
2019-04-11T03:56:18.268Z,2.50
2019-04-11T03:58:48.086Z,2.47
2019-04-11T04:01:18.198Z,2.38
2019-04-11T04:03:48.857Z,2.39
2019-04-11T04:06:18.989Z,2.44
2019-04-11T04:08:48.745Z,2.35
2019-04-11T04:11:22.199Z,2.31
2019-04-11T04:13:59.455Z,2.25
2019-04-11T04:16:36.345Z,2.27
2019-04-11T04:19:20.504Z,2.25
2019-04-11T04:21:55.193Z,2.29
2019-04-11T04:24:28.798Z,2.12
2019-04-11T04:26:59.718Z,2.01
2019-04-11T04:29:29.411Z,1.94
2019-04-11T04:31:59.542Z,1.99
2019-04-11T04:34:28.565Z,2.06
2019-04-11T04:36:57.898Z,2.11
2019-04-11T04:39:27.292Z,2.10
2019-04-11T04:42:05.868Z,2.05
2019-04-11T04:44:30.287Z,1.97
2019-04-11T04:47:15.578Z,1.98
2019-04-11T04:49:32.206Z,2.16
2019-04-11T04:52:01.501Z,2.02
2019-04-11T04:54:30.805Z,2.25
2019-04-11T04:57:00.976Z,2.26
2019-04-11T04:59:30.112Z,2.27
2019-04-11T05:01:59.327Z,2.20
2019-04-11T05:04:29.598Z,2.30
2019-04-11T05:06:59.009Z,2.45
2019-04-11T05:09:27.632Z,2.29
2019-04-11T05:11:56.096Z,2.24
2019-04-11T05:14:25.407Z,2.24
2019-04-11T05:16:54.788Z,2.26
2019-04-11T05:19:23.760Z,2.25
2019-04-11T05:21:52.366Z,2.41
2019-04-11T05:24:20.905Z,2.33
2019-04-11T05:26:50.362Z,2.51
2019-04-11T05:29:19.566Z,2.53
2019-04-11T05:31:49.201Z,2.58
2019-04-11T05:34:18.312Z,2.51
2019-04-11T05:36:47.229Z,2.56
2019-04-11T05:39:17.392Z,2.67
2019-04-11T05:41:47.133Z,2.71
2019-04-11T05:44:16.766Z,2.52
2019-04-11T05:46:52.299Z,2.71
2019-04-11T05:49:17.167Z,2.97
2019-04-11T05:51:47.614Z,3.05
2019-04-11T05:54:16.531Z,3.16
2019-04-11T05:56:48.698Z,3.01
2019-04-11T05:59:18.280Z,2.85
2019-04-11T06:01:52.734Z,2.95
2019-04-11T06:04:25.559Z,2.94
2019-04-11T06:07:13.092Z,2.83
2019-04-11T06:09:44.143Z,3.31
2019-04-11T06:12:14.304Z,3.28
2019-04-11T06:14:44.403Z,3.10
2019-04-11T06:17:15.800Z,3.43
2019-04-11T06:19:45.999Z,3.68
2019-04-11T06:22:14.893Z,3.81
2019-04-11T06:24:48.226Z,3.48
2019-04-11T06:27:22.078Z,3.54
2019-04-11T06:29:59.197Z,3.45
2019-04-11T06:32:45.835Z,3.53
2019-04-11T06:35:32.343Z,3.12
2019-04-11T06:38:08.294Z,3.29
2019-04-11T06:40:38.376Z,3.40
2019-04-11T06:43:11.902Z,3.55
2019-04-11T06:45:46.024Z,3.69
2019-04-11T06:48:23.742Z,3.72
2019-04-11T06:50:57.592Z,3.80
2019-04-11T06:53:28.129Z,3.80
2019-04-11T06:56:14.756Z,4.10
2019-04-11T06:58:45.726Z,4.21
2019-04-11T07:01:16.153Z,4.32
2019-04-11T07:03:53.192Z,4.14
2019-04-11T07:06:23.825Z,4.42
2019-04-11T07:08:54.696Z,4.43
2019-04-11T07:11:41.127Z,4.50
2019-04-11T07:14:12.412Z,4.69
2019-04-11T07:16:42.618Z,4.68
2019-04-11T07:19:24.889Z,4.81
2019-04-11T07:21:54.426Z,4.91
2019-04-11T07:24:24.786Z,4.90
2019-04-11T07:26:55.046Z,4.82
2019-04-11T07:29:27.822Z,4.98
2019-04-11T07:31:58.273Z,4.94
2019-04-11T07:34:45.654Z,4.95
2019-04-11T07:37:32.596Z,4.66
2019-04-11T07:40:13.004Z,4.68
2019-04-11T07:42:53.017Z,5.02
2019-04-11T07:45:26.069Z,5.12
2019-04-11T07:48:11.289Z,5.29
2019-04-11T07:50:40.015Z,5.02
2019-04-11T07:53:10.823Z,5.21
2019-04-11T07:55:40.844Z,5.40
2019-04-11T07:58:23.976Z,5.49
2019-04-11T08:01:10.398Z,5.74
2019-04-11T08:03:49.875Z,5.57
2019-04-11T08:06:34.907Z,5.55
2019-04-11T08:09:22.154Z,5.46
2019-04-11T08:11:52.241Z,5.39
2019-04-11T08:14:24.893Z,5.42
2019-04-11T08:17:11.494Z,5.42
2019-04-11T08:19:44.186Z,5.16
2019-04-11T08:22:30.784Z,5.10
2019-04-11T08:25:17.446Z,5.29
2019-04-11T08:28:00.033Z,5.31
2019-04-11T08:30:41.468Z,5.46
2019-04-11T08:33:10.827Z,5.63
2019-04-11T08:35:54.012Z,5.92
2019-04-11T08:38:28.681Z,6.23
2019-04-11T08:41:17.646Z,6.01
2019-04-11T08:43:46.105Z,6.37
2019-04-11T08:46:25.256Z,6.28
2019-04-11T08:48:55.348Z,6.41
2019-04-11T08:51:27.356Z,6.07
2019-04-11T08:54:14.015Z,5.81
2019-04-11T08:56:43.272Z,5.58
2019-04-11T08:59:24.980Z,5.59
2019-04-11T09:01:53.983Z,5.60
2019-04-11T09:04:41.215Z,5.61
2019-04-11T09:07:10.609Z,5.72
2019-04-11T09:09:45.552Z,5.90
2019-04-11T09:12:14.766Z,6.03
2019-04-11T09:14:48.553Z,6.37
2019-04-11T09:17:21.357Z,6.30
2019-04-11T09:19:55.034Z,6.64
2019-04-11T09:22:26.076Z,6.59
2019-04-11T09:25:11.096Z,6.17
2019-04-11T09:27:51.062Z,6.13
2019-04-11T09:30:30.616Z,6.20
2019-04-11T09:33:04.723Z,6.04
2019-04-11T09:35:37.922Z,6.05
2019-04-11T09:38:10.593Z,6.29
2019-04-11T09:40:43.761Z,6.80
2019-04-11T09:43:16.205Z,7.11
2019-04-11T09:46:01.909Z,7.18
2019-04-11T09:48:34.911Z,7.04
2019-04-11T09:51:17.836Z,7.58
2019-04-11T09:54:06.140Z,7.79
2019-04-11T09:56:37.600Z,7.29
2019-04-11T09:59:12.203Z,7.38
2019-04-11T10:02:00.564Z,7.46
2019-04-11T10:04:31.970Z,7.09
2019-04-11T10:07:21.620Z,7.04
2019-04-11T10:10:05.496Z,7.02
2019-04-11T10:12:52.222Z,7.16
2019-04-11T10:15:23.266Z,7.00
2019-04-11T10:18:20.090Z,7.00
2019-04-11T10:20:40.886Z,6.93
2019-04-11T10:23:12.391Z,6.94
2019-04-11T10:25:41.926Z,6.76
2019-04-11T10:28:13.236Z,6.45
2019-04-11T10:30:44.130Z,6.75
2019-04-11T10:33:15.012Z,7.11
2019-04-11T10:36:01.176Z,7.11
2019-04-11T10:38:30.723Z,6.85
2019-04-11T10:41:00.985Z,6.94
2019-04-11T10:43:32.079Z,7.03
2019-04-11T10:46:02.830Z,6.88
2019-04-11T10:48:39.278Z,6.98
2019-04-11T10:51:17.144Z,7.18
2019-04-11T10:53:47.033Z,7.48
2019-04-11T10:56:18.050Z,7.48
2019-04-11T10:58:49.038Z,7.21
2019-04-11T11:01:19.893Z,6.79
2019-04-11T11:04:03.296Z,6.77
2019-04-11T11:06:33.718Z,6.86
2019-04-11T11:09:19.858Z,6.77
2019-04-11T11:11:53.009Z,7.35
2019-04-11T11:14:29.043Z,6.91
2019-04-11T11:17:02.413Z,7.17
2019-04-11T11:19:59.280Z,7.11
2019-04-11T11:22:36.299Z,7.49
2019-04-11T11:25:24.691Z,7.74
2019-04-11T11:27:53.261Z,7.74
2019-04-11T11:30:39.816Z,6.90
2019-04-11T11:33:09.962Z,6.69
2019-04-11T11:36:00.551Z,6.67
2019-04-11T11:38:30.239Z,6.45
2019-04-11T11:41:16.635Z,6.69
2019-04-11T11:43:45.419Z,7.04
2019-04-11T11:46:31.783Z,7.34
2019-04-11T11:49:02.899Z,7.05
2019-04-11T11:51:42.144Z,7.11
2019-04-11T11:54:21.911Z,7.14
2019-04-11T11:56:50.735Z,7.46
2019-04-11T11:59:20.962Z,7.53
2019-04-11T12:01:54.317Z,7.32
2019-04-11T12:04:40.518Z,7.43
2019-04-11T12:07:10.661Z,7.17
2019-04-11T12:09:58.554Z,6.60
2019-04-11T12:12:46.312Z,6.61
2019-04-11T12:15:35.090Z,6.60
2019-04-11T12:18:11.316Z,6.81
2019-04-11T12:20:47.880Z,6.73
2019-04-11T12:23:27.353Z,6.62
2019-04-11T12:25:55.798Z,6.55
2019-04-11T12:28:42.034Z,7.07
2019-04-11T12:31:11.357Z,7.20
2019-04-11T12:33:41.617Z,7.00
2019-04-11T12:36:12.530Z,7.46
2019-04-11T12:38:55.028Z,7.81
2019-04-11T12:41:25.551Z,6.90
2019-04-11T12:44:04.276Z,7.60
2019-04-11T12:46:50.900Z,7.50
2019-04-11T12:49:23.561Z,8.01
2019-04-11T12:52:10.008Z,7.57
2019-04-11T12:54:51.752Z,7.80
2019-04-11T12:57:38.124Z,7.46
2019-04-11T13:00:21.195Z,7.55
2019-04-11T13:03:00.488Z,7.46
2019-04-11T13:05:31.924Z,7.23
2019-04-11T13:08:02.055Z,7.52
2019-04-11T13:10:30.605Z,7.89
2019-04-11T13:13:16.688Z,7.50
2019-04-11T13:15:46.876Z,7.68
2019-04-11T13:18:16.999Z,7.42
2019-04-11T13:20:47.100Z,7.82
2019-04-11T13:23:19.862Z,7.40
2019-04-11T13:26:01.984Z,7.25
2019-04-11T13:28:31.705Z,7.13
2019-04-11T13:31:18.488Z,7.24
2019-04-11T13:33:46.946Z,7.13
2019-04-11T13:36:33.230Z,7.25
2019-04-11T13:39:03.457Z,7.58
2019-04-11T13:41:33.545Z,7.52
2019-04-11T13:44:03.690Z,7.68
2019-04-11T13:46:36.749Z,7.36
2019-04-11T13:49:21.585Z,7.16
2019-04-11T13:52:00.790Z,7.29
2019-04-11T13:54:42.979Z,7.45
2019-04-11T13:57:28.327Z,7.25
2019-04-11T14:00:15.154Z,7.04
2019-04-11T14:02:57.588Z,7.04
2019-04-11T14:05:27.686Z,6.69
2019-04-11T14:07:57.084Z,6.66
2019-04-11T14:10:25.749Z,6.58
2019-04-11T14:12:57.815Z,6.73
2019-04-11T14:15:29.660Z,7.07
2019-04-11T14:18:15.660Z,6.99
2019-04-11T14:20:48.695Z,7.03
2019-04-11T14:23:24.901Z,6.90
2019-04-11T14:26:01.248Z,6.90
2019-04-11T14:28:31.975Z,7.22
2019-04-11T14:31:14.470Z,7.13
2019-04-11T14:33:50.812Z,7.40
2019-04-11T14:36:37.344Z,7.13
2019-04-11T14:39:08.888Z,7.18
2019-04-11T14:41:59.662Z,6.69
2019-04-11T14:44:28.925Z,6.93
2019-04-11T14:47:06.792Z,6.79
2019-04-11T14:49:35.426Z,6.86
2019-04-11T14:52:22.194Z,6.60
2019-04-11T14:54:50.670Z,6.50
2019-04-11T14:57:35.897Z,6.31
2019-04-11T15:00:09.089Z,6.32
2019-04-11T15:02:39.219Z,6.20
2019-04-11T15:05:15.372Z,6.31
2019-04-11T15:07:46.140Z,6.16
2019-04-11T15:10:32.467Z,6.02
2019-04-11T15:13:01.008Z,5.97
2019-04-11T15:15:31.100Z,6.19
2019-04-11T15:18:01.349Z,6.21
2019-04-11T15:20:34.815Z,6.39
2019-04-11T15:23:16.907Z,6.32
2019-04-11T15:26:02.913Z,6.33
2019-04-11T15:28:43.644Z,6.41
2019-04-11T15:31:38.726Z,6.57
2019-04-11T15:34:03.861Z,6.59
2019-04-11T15:36:32.324Z,6.34
2019-04-11T15:39:02.484Z,6.25
2019-04-11T15:41:32.131Z,5.72
2019-04-11T15:44:14.611Z,5.95
2019-04-11T15:46:43.275Z,6.05
2019-04-11T15:49:20.485Z,5.90
2019-04-11T15:51:44.911Z,5.93
2019-04-11T15:54:15.000Z,6.06
2019-04-11T15:56:48.575Z,5.78
2019-04-11T15:59:18.719Z,5.70
2019-04-11T16:01:57.588Z,5.73
2019-04-11T16:04:30.193Z,5.82
2019-04-11T16:07:12.884Z,5.76
2019-04-11T16:09:50.422Z,5.71
2019-04-11T16:12:26.186Z,5.64
2019-04-11T16:15:14.326Z,5.45
2019-04-11T16:18:00.483Z,5.48
2019-04-11T16:20:28.912Z,5.49
2019-04-11T16:23:11.009Z,5.52
2019-04-11T16:25:39.732Z,5.52
2019-04-11T16:28:21.661Z,5.86
2019-04-11T16:30:51.787Z,5.65
2019-04-11T16:33:38.047Z,5.65
2019-04-11T16:36:08.151Z,5.60
2019-04-11T16:38:50.456Z,5.73
2019-04-11T16:41:29.989Z,5.76
2019-04-11T16:44:00.083Z,5.80
2019-04-11T16:46:46.449Z,5.47
2019-04-11T16:49:14.935Z,5.43
2019-04-11T16:51:43.394Z,5.31
2019-04-11T16:54:11.831Z,5.23
2019-04-11T16:56:41.690Z,5.30
2019-04-11T16:59:10.473Z,5.24
2019-04-11T17:01:38.932Z,5.42
2019-04-11T17:04:07.396Z,5.56
2019-04-11T17:06:55.539Z,5.51
2019-04-11T17:09:31.483Z,5.48
2019-04-11T17:11:59.986Z,5.47
2019-04-11T17:14:32.849Z,5.33
2019-04-11T17:17:00.658Z,5.21
2019-04-11T17:19:28.790Z,5.22
2019-04-11T17:21:57.247Z,5.15
2019-04-11T17:24:25.692Z,5.18
2019-04-11T17:26:54.116Z,5.12
2019-04-11T17:29:24.709Z,5.12
2019-04-11T17:31:55.600Z,5.17
2019-04-11T17:34:23.015Z,5.14
2019-04-11T17:36:51.476Z,5.19
2019-04-11T17:39:19.922Z,5.09
2019-04-11T17:41:48.359Z,5.17
2019-04-11T17:44:16.882Z,5.15
2019-04-11T17:46:45.319Z,5.12
2019-04-11T17:49:13.793Z,5.10
2019-04-11T17:51:42.847Z,5.17
2019-04-11T17:54:12.497Z,5.04
2019-04-11T17:56:40.957Z,5.00
2019-04-11T17:59:12.050Z,4.99
2019-04-11T18:01:39.604Z,4.87
2019-04-11T18:04:08.878Z,4.92
2019-04-11T18:06:37.375Z,4.79
2019-04-11T18:09:10.088Z,4.78
2019-04-11T18:11:38.546Z,4.76
2019-04-11T18:14:07.006Z,4.90
2019-04-11T18:16:35.452Z,4.90
2019-04-11T18:19:06.061Z,4.78
2019-04-11T18:21:34.878Z,4.77
2019-04-11T18:24:05.177Z,4.67
2019-04-11T18:26:33.857Z,4.62
2019-04-11T18:29:02.440Z,4.65
2019-04-11T18:31:30.850Z,4.76
2019-04-11T18:34:01.622Z,4.79
2019-04-11T18:36:31.806Z,4.81
2019-04-11T18:39:02.079Z,4.84
2019-04-11T18:41:29.900Z,4.78
2019-04-11T18:43:58.345Z,4.82
2019-04-11T18:46:26.837Z,4.76
2019-04-11T18:48:55.450Z,4.70
2019-04-11T18:51:23.912Z,4.75
2019-04-11T18:53:52.426Z,4.76
2019-04-11T18:56:20.898Z,4.73
2019-04-11T18:58:49.300Z,4.66
2019-04-11T19:01:18.767Z,4.69
2019-04-11T19:03:47.205Z,4.66
2019-04-11T19:06:27.248Z,4.78
2019-04-11T19:08:45.865Z,4.67
2019-04-11T19:11:15.756Z,4.80
2019-04-11T19:13:46.737Z,4.75
2019-04-11T19:16:16.140Z,4.66
2019-04-11T19:18:47.710Z,4.69
2019-04-11T19:21:15.082Z,4.61
2019-04-11T19:23:43.559Z,4.64
2019-04-11T19:26:14.543Z,4.46
2019-04-11T19:28:42.203Z,4.53
2019-04-11T19:31:12.300Z,4.43
2019-04-11T19:33:40.962Z,4.50
2019-04-11T19:36:10.026Z,4.57
2019-04-11T19:38:43.029Z,4.59
2019-04-11T19:41:09.809Z,4.60
2019-04-11T19:43:40.646Z,4.46
2019-04-11T19:46:08.395Z,4.60
2019-04-11T19:48:36.864Z,4.51
2019-04-11T19:51:05.302Z,4.56
2019-04-11T19:53:33.808Z,4.22
2019-04-11T19:56:05.393Z,4.36
2019-04-11T19:58:34.066Z,4.28
2019-04-11T20:01:02.489Z,4.35
2019-04-11T20:03:31.842Z,4.34
2019-04-11T20:06:00.403Z,4.33
2019-04-11T20:08:28.840Z,4.43
2019-04-11T20:11:01.072Z,4.45
2019-04-11T20:13:27.486Z,4.40
2019-04-11T20:15:55.910Z,4.60
2019-04-11T20:18:24.396Z,4.49
2019-04-11T20:20:52.841Z,4.58
2019-04-11T20:23:21.309Z,4.46
2019-04-11T20:25:50.115Z,4.40
2019-04-11T20:28:19.911Z,4.40
2019-04-11T20:30:48.784Z,4.43
2019-04-11T20:33:26.569Z,4.44
2019-04-11T20:35:47.402Z,4.28
2019-04-11T20:38:16.682Z,4.41
2019-04-11T20:40:45.201Z,4.41
2019-04-11T20:43:13.639Z,4.49
2019-04-11T20:45:43.206Z,4.36
2019-04-11T20:48:11.664Z,4.26
2019-04-11T20:50:40.138Z,4.27
2019-04-11T20:53:12.845Z,4.32
2019-04-11T20:55:39.369Z,4.30
2019-04-11T20:58:10.410Z,4.28
2019-04-11T21:00:49.679Z,4.27
2019-04-11T21:03:08.929Z,4.33
2019-04-11T21:05:40.393Z,4.37
2019-04-11T21:08:08.819Z,4.25
2019-04-11T21:10:37.291Z,4.18
2019-04-11T21:13:07.227Z,4.14
2019-04-11T21:15:35.901Z,4.20
2019-04-11T21:18:04.525Z,4.13
2019-04-11T21:20:33.153Z,4.10
2019-04-11T21:23:01.584Z,4.04
2019-04-11T21:25:30.318Z,4.16
2019-04-11T21:27:59.145Z,4.11
2019-04-11T21:30:30.510Z,4.06
2019-04-11T21:32:58.481Z,4.10
2019-04-11T21:35:26.947Z,4.03
2019-04-11T21:37:55.393Z,3.99
2019-04-11T21:40:23.849Z,3.93
2019-04-11T21:42:52.299Z,3.95
2019-04-11T21:45:20.754Z,4.04
2019-04-11T21:47:49.209Z,4.10
2019-04-11T21:50:17.691Z,4.09
2019-04-11T21:52:46.191Z,4.11
2019-04-11T21:55:15.990Z,4.16
2019-04-11T21:57:48.475Z,4.04
2019-04-11T22:00:22.156Z,3.98
2019-04-11T22:02:48.195Z,4.17
2019-04-11T22:05:16.925Z,4.07
2019-04-11T22:07:45.362Z,4.00
2019-04-11T22:10:14.351Z,4.05
2019-04-11T22:12:42.865Z,4.16
2019-04-11T22:15:12.485Z,4.04
2019-04-11T22:17:42.955Z,3.99
2019-04-11T22:20:11.178Z,3.94
2019-04-11T22:22:39.607Z,3.85
2019-04-11T22:25:08.440Z,3.81
2019-04-11T22:27:36.871Z,3.82
2019-04-11T22:30:08.843Z,3.93
2019-04-11T22:32:37.315Z,3.90
2019-04-11T22:35:06.520Z,3.82
2019-04-11T22:37:34.952Z,3.84
2019-04-11T22:40:04.971Z,3.92
2019-04-11T22:42:33.453Z,3.97
2019-04-11T22:45:01.865Z,3.96
2019-04-11T22:47:30.337Z,3.93
2019-04-11T22:49:58.810Z,3.91
2019-04-11T22:52:27.240Z,3.87
2019-04-11T22:54:55.702Z,3.71
2019-04-11T22:57:24.181Z,3.65
2019-04-11T22:59:52.617Z,3.47
2019-04-11T23:02:28.760Z,3.59
2019-04-11T23:04:57.183Z,3.69
2019-04-11T23:07:25.665Z,3.59
2019-04-11T23:09:54.095Z,3.75
2019-04-11T23:12:22.563Z,3.69
2019-04-11T23:14:51.071Z,3.65
2019-04-11T23:17:19.498Z,3.77
2019-04-11T23:19:47.957Z,3.72
2019-04-11T23:22:16.443Z,3.68
2019-04-11T23:24:44.915Z,3.77
2019-04-11T23:27:13.395Z,3.53
2019-04-11T23:29:41.860Z,3.47
2019-04-11T23:32:10.324Z,3.72
2019-04-11T23:34:38.789Z,3.71
2019-04-11T23:37:07.224Z,3.72
2019-04-11T23:39:35.701Z,3.54
2019-04-11T23:42:04.166Z,3.56
2019-04-11T23:44:32.608Z,3.66
2019-04-11T23:47:01.074Z,3.70
2019-04-11T23:49:29.523Z,3.56
2019-04-11T23:51:57.956Z,3.58
2019-04-11T23:54:28.945Z,3.44
2019-04-11T23:57:00.543Z,3.47
2019-04-11T23:59:31.767Z,3.48
